createdAt,value
2024-02-26T00:00:28.148Z,26.80
2024-02-26T00:03:15.495Z,26.90
2024-02-26T00:05:43.445Z,25.50
2024-02-26T00:08:11.021Z,24.50
2024-02-26T00:10:39.361Z,27.10
2024-02-26T00:13:07.416Z,25.40
2024-02-26T00:15:36.537Z,27.40
2024-02-26T00:18:04.151Z,25.60
2024-02-26T00:20:31.552Z,24.90
2024-02-26T00:22:58.712Z,23.30
2024-02-26T00:25:25.941Z,26.00
2024-02-26T00:27:53.270Z,25.10
2024-02-26T00:30:20.862Z,24.60
2024-02-26T00:32:48.287Z,24.60
2024-02-26T00:35:16.849Z,28.30
2024-02-26T00:37:45.260Z,26.60
2024-02-26T00:40:13.989Z,28.10
2024-02-26T00:42:46.747Z,26.70
2024-02-26T00:45:14.435Z,30.10
2024-02-26T00:47:42.846Z,24.30
2024-02-26T00:50:11.525Z,25.90
2024-02-26T00:52:38.906Z,26.00
2024-02-26T00:55:07.940Z,25.60
2024-02-26T00:57:35.258Z,23.20
2024-02-26T01:00:02.625Z,26.10
2024-02-26T01:02:30.523Z,28.80
2024-02-26T01:04:57.843Z,30.90
2024-02-26T01:07:25.241Z,29.20
2024-02-26T01:09:52.753Z,27.20
2024-02-26T01:12:20.215Z,29.00
2024-02-26T01:14:47.406Z,27.00
2024-02-26T01:17:14.591Z,29.30
2024-02-26T01:19:42.403Z,27.40
2024-02-26T01:22:09.928Z,30.60
2024-02-26T01:24:37.285Z,30.30
2024-02-26T01:27:04.741Z,28.80
2024-02-26T01:29:32.132Z,29.00
2024-02-26T01:31:59.291Z,29.00
2024-02-26T01:34:26.762Z,25.40
2024-02-26T01:36:54.165Z,28.20
2024-02-26T01:39:21.399Z,29.00
2024-02-26T01:41:48.710Z,31.40
2024-02-26T01:44:17.057Z,27.40
2024-02-26T01:46:44.385Z,26.10
2024-02-26T01:49:14.341Z,30.90
2024-02-26T01:51:43.978Z,29.60
2024-02-26T01:54:12.265Z,28.20
2024-02-26T01:56:41.434Z,28.60
2024-02-26T01:59:10.883Z,28.40
2024-02-26T02:01:38.982Z,30.60
2024-02-26T02:04:06.658Z,31.00
2024-02-26T02:06:34.266Z,30.20
2024-02-26T02:09:07.529Z,32.20
2024-02-26T02:11:35.107Z,33.70
2024-02-26T02:14:02.281Z,28.80
2024-02-26T02:16:29.603Z,31.60
2024-02-26T05:27:34.004Z,28.50
2024-02-26T05:30:01.513Z,28.80
2024-02-26T05:32:28.625Z,30.40
2024-02-26T05:34:55.583Z,29.00
2024-02-26T05:37:22.497Z,28.70
2024-02-26T05:39:49.651Z,31.80
2024-02-26T05:42:16.666Z,28.80
2024-02-26T05:44:43.742Z,30.50
2024-02-26T05:47:10.903Z,29.10
2024-02-26T05:49:37.921Z,29.60
2024-02-26T05:52:05.007Z,27.30
2024-02-26T05:54:32.006Z,30.00
2024-02-26T05:56:59.428Z,30.10
2024-02-26T05:59:26.434Z,30.50
2024-02-26T06:01:53.432Z,28.50
2024-02-26T06:04:20.408Z,29.20
2024-02-26T06:06:47.901Z,27.70
2024-02-26T06:09:14.987Z,30.40
2024-02-26T06:11:42.220Z,29.00
2024-02-26T06:14:09.814Z,28.30
2024-02-26T06:16:37.132Z,27.10
2024-02-26T06:19:08.124Z,28.00
2024-02-26T06:21:36.160Z,28.30
2024-02-26T06:24:03.298Z,27.30
2024-02-26T06:26:30.450Z,29.60
2024-02-26T06:28:57.809Z,25.50
2024-02-26T06:31:25.340Z,25.70
2024-02-26T06:33:53.084Z,26.50
2024-02-26T06:36:20.697Z,27.40
2024-02-26T06:38:47.720Z,25.50
2024-02-26T06:41:14.660Z,24.60
2024-02-26T06:43:42.030Z,27.40
2024-02-26T06:46:09.586Z,26.60
2024-02-26T06:48:38.407Z,27.10
2024-02-26T06:51:06.310Z,25.00
2024-02-26T06:53:33.493Z,22.90
2024-02-26T06:56:00.478Z,25.10
2024-02-26T06:58:27.585Z,24.80
2024-02-26T07:00:54.987Z,20.20
2024-02-26T07:03:24.181Z,21.40
2024-02-26T07:05:51.809Z,21.10
2024-02-26T07:08:18.849Z,21.70
2024-02-26T07:10:45.864Z,21.10
2024-02-26T07:13:13.230Z,19.40
2024-02-26T07:15:40.399Z,20.00
2024-02-26T07:18:08.401Z,18.90
2024-02-26T07:20:35.969Z,21.70
2024-02-26T07:23:04.142Z,18.40
2024-02-26T07:25:31.263Z,20.40
2024-02-26T07:27:58.461Z,17.40
2024-02-26T07:30:26.120Z,18.90
2024-02-26T07:32:53.560Z,17.30
2024-02-26T07:35:21.057Z,18.40
2024-02-26T07:37:49.887Z,16.30
2024-02-26T07:40:17.935Z,17.70
2024-02-26T07:42:44.980Z,20.30
2024-02-26T07:45:16.843Z,19.90
2024-02-26T07:47:44.866Z,19.40
2024-02-26T07:50:14.180Z,18.10
2024-02-26T07:52:41.695Z,19.40
2024-02-26T07:55:10.657Z,21.20
2024-02-26T07:57:38.270Z,17.50
2024-02-26T08:00:09.110Z,19.70
2024-02-26T08:02:36.352Z,19.30
2024-02-26T08:05:03.760Z,15.60
2024-02-26T08:07:31.809Z,15.90
2024-02-26T08:09:59.086Z,17.00
2024-02-26T08:12:26.091Z,14.20
2024-02-26T08:14:53.146Z,14.00
2024-02-26T08:17:20.658Z,14.60
2024-02-26T08:19:47.743Z,16.70
2024-02-26T08:22:17.422Z,14.20
2024-02-26T08:24:44.473Z,15.60
2024-02-26T08:27:11.506Z,14.10
2024-02-26T08:29:38.942Z,17.10
2024-02-26T08:32:08.382Z,13.00
2024-02-26T08:34:35.754Z,13.20
2024-02-26T08:37:02.796Z,14.40
2024-02-26T08:39:29.823Z,13.60
2024-02-26T08:41:56.866Z,13.50
2024-02-26T08:44:23.831Z,14.10
2024-02-26T08:46:52.159Z,13.10
2024-02-26T08:49:19.087Z,15.40
2024-02-26T08:51:46.981Z,14.50
2024-02-26T08:54:14.067Z,16.70
2024-02-26T08:56:41.453Z,15.10
2024-02-26T08:59:08.462Z,14.70
2024-02-26T09:01:36.437Z,13.60
2024-02-26T09:04:03.485Z,13.80
2024-02-26T09:06:30.990Z,14.70
2024-02-26T09:09:01.542Z,14.80
2024-02-26T09:11:29.866Z,14.40
2024-02-26T09:13:57.305Z,17.40
2024-02-26T09:16:24.665Z,13.00
2024-02-26T09:18:52.086Z,13.90
2024-02-26T09:21:24.618Z,13.30
2024-02-26T09:23:52.213Z,13.00
2024-02-26T09:26:19.466Z,13.30
2024-02-26T09:28:47.593Z,14.30
2024-02-26T09:31:17.112Z,14.00
2024-02-26T09:33:44.265Z,13.00
2024-02-26T09:36:12.365Z,12.80
2024-02-26T09:38:49.571Z,12.00
2024-02-26T09:41:23.579Z,13.40
2024-02-26T09:43:56.262Z,14.70
2024-02-26T09:46:23.348Z,13.90
2024-02-26T09:48:51.200Z,13.90
2024-02-26T09:51:18.998Z,14.10
2024-02-26T09:53:49.660Z,13.10
2024-02-26T09:56:17.195Z,14.10
2024-02-26T09:58:46.931Z,12.90
2024-02-26T10:01:18.692Z,12.50
2024-02-26T10:03:46.259Z,14.20
2024-02-26T10:06:13.732Z,13.50
2024-02-26T10:08:42.024Z,12.80
2024-02-26T10:11:10.746Z,12.50
2024-02-26T10:13:39.287Z,12.20
2024-02-26T10:16:07.657Z,13.40
2024-02-26T10:21:38.687Z,12.50
2024-02-26T10:24:06.187Z,12.70
2024-02-26T10:26:33.968Z,11.70
2024-02-26T10:29:03.902Z,11.50
2024-02-26T10:31:31.212Z,12.70
2024-02-26T10:34:05.629Z,12.60
2024-02-26T10:36:43.991Z,13.30
2024-02-26T10:39:17.216Z,14.40
2024-02-26T10:41:46.479Z,14.40
2024-02-26T10:44:18.187Z,14.20
2024-02-26T10:46:48.625Z,15.20
2024-02-26T10:49:21.550Z,14.40
2024-02-26T10:51:56.795Z,14.60
2024-02-26T10:54:26.090Z,13.80
2024-02-26T10:56:53.765Z,14.70
2024-02-26T10:59:22.526Z,15.40
2024-02-26T11:01:50.819Z,15.80
2024-02-26T11:04:19.509Z,16.40
2024-02-26T11:06:47.272Z,17.80
2024-02-26T11:09:15.488Z,15.60
2024-02-26T11:11:42.658Z,15.80
2024-02-26T11:14:11.382Z,16.60
2024-02-26T11:16:40.176Z,13.90
2024-02-26T11:19:08.731Z,12.60
2024-02-26T11:21:42.607Z,13.30
2024-02-26T11:24:14.171Z,13.00
2024-02-26T11:26:51.602Z,11.90
2024-02-26T11:29:23.675Z,13.40
2024-02-26T11:31:51.142Z,13.40
2024-02-26T11:34:19.318Z,12.00
2024-02-26T11:36:46.758Z,12.60
2024-02-26T11:39:18.100Z,10.40
2024-02-26T11:41:45.604Z,13.70
2024-02-26T11:44:12.749Z,12.50
2024-02-26T11:46:45.623Z,10.30
2024-02-26T11:49:35.851Z,9.50
2024-02-26T11:52:08.242Z,10.90
2024-02-26T11:54:48.149Z,9.10
2024-02-26T11:57:29.311Z,9.00
2024-02-26T11:59:56.943Z,8.40
2024-02-26T12:02:46.509Z,8.60
2024-02-26T12:05:19.320Z,9.20
2024-02-26T12:07:48.982Z,9.00
2024-02-26T12:10:29.452Z,9.10
2024-02-26T12:13:00.592Z,8.40
2024-02-26T12:15:32.220Z,8.30
2024-02-26T12:18:00.607Z,7.80
2024-02-26T12:20:27.675Z,9.20
2024-02-26T12:22:56.984Z,7.50
2024-02-26T12:25:26.355Z,9.00
2024-02-26T12:27:53.789Z,8.30
2024-02-26T12:30:21.330Z,7.30
2024-02-26T12:32:49.455Z,6.70
2024-02-26T12:35:17.196Z,6.90
2024-02-26T12:37:44.817Z,8.20
2024-02-26T12:40:14.092Z,7.00
2024-02-26T12:42:42.124Z,6.40
2024-02-26T12:45:11.587Z,7.10
2024-02-26T12:47:39.709Z,6.60
2024-02-26T12:50:09.793Z,6.40
2024-02-26T12:52:39.287Z,5.10
2024-02-26T12:55:09.267Z,7.90
2024-02-26T12:57:38.269Z,5.80
2024-02-26T13:00:07.287Z,5.20
2024-02-26T13:02:35.355Z,6.50
2024-02-26T13:05:02.970Z,9.50
2024-02-26T13:07:30.461Z,7.00
2024-02-26T13:09:57.790Z,5.70
2024-02-26T13:12:25.372Z,6.60
2024-02-26T13:15:02.872Z,6.20
2024-02-26T13:17:33.734Z,7.70
2024-02-26T13:20:01.035Z,4.50
2024-02-26T13:22:28.157Z,5.50
2024-02-26T13:25:04.229Z,5.10
2024-02-26T13:27:31.302Z,9.50
2024-02-26T13:30:11.320Z,6.10
2024-02-26T13:32:41.423Z,6.60
2024-02-26T13:35:14.833Z,5.20
2024-02-26T13:37:42.972Z,5.10
2024-02-26T13:40:13.427Z,4.50
2024-02-26T13:42:41.048Z,5.10
2024-02-26T13:45:10.320Z,3.70
2024-02-26T13:47:37.575Z,4.10
2024-02-26T13:50:05.597Z,4.00
2024-02-26T13:52:34.147Z,3.60
2024-02-26T13:55:01.710Z,4.30
2024-02-26T13:57:29.158Z,4.10
2024-02-26T13:59:56.379Z,6.80
2024-02-26T14:02:23.346Z,7.00
2024-02-26T14:04:50.829Z,3.90
2024-02-26T14:07:19.058Z,4.30
2024-02-26T14:09:50.333Z,3.30
2024-02-26T14:12:20.915Z,5.20
2024-02-26T14:14:50.329Z,4.90
2024-02-26T14:17:17.601Z,6.50
2024-02-26T14:19:46.318Z,7.70
2024-02-26T14:22:14.609Z,5.60
2024-02-26T14:24:42.192Z,4.10
2024-02-26T14:27:10.186Z,3.90
2024-02-26T14:29:38.101Z,3.90
2024-02-26T14:32:06.737Z,9.10
2024-02-26T14:34:34.364Z,3.30
2024-02-26T14:37:02.251Z,4.50
2024-02-26T14:39:30.570Z,3.40
2024-02-26T14:41:58.643Z,5.20
2024-02-26T14:44:26.032Z,4.60
2024-02-26T14:46:53.191Z,3.80
2024-02-26T14:49:20.411Z,3.90
2024-02-26T14:51:47.828Z,5.80
2024-02-26T14:54:14.909Z,6.00
2024-02-26T14:56:42.247Z,8.00
2024-02-26T14:59:09.857Z,8.30
2024-02-26T15:01:36.982Z,4.50
2024-02-26T15:04:05.203Z,5.50
2024-02-26T15:06:32.844Z,4.60
2024-02-26T15:09:00.607Z,5.10
2024-02-26T15:11:28.137Z,5.00
2024-02-26T15:13:55.693Z,6.20
2024-02-26T15:16:23.566Z,5.30
2024-02-26T15:18:50.771Z,7.50
2024-02-26T15:21:17.954Z,6.50
2024-02-26T15:23:58.768Z,4.10
2024-02-26T15:26:32.154Z,4.00
2024-02-26T15:28:59.665Z,5.00
2024-02-26T15:31:26.814Z,13.60
2024-02-26T15:33:54.674Z,10.30
2024-02-26T15:36:21.740Z,7.50
2024-02-26T15:38:49.284Z,6.80
2024-02-26T15:41:18.288Z,7.80
2024-02-26T15:43:45.865Z,7.50
2024-02-26T15:46:13.832Z,6.10
2024-02-26T15:48:41.596Z,4.70
2024-02-26T15:51:08.736Z,5.90
2024-02-26T15:53:35.791Z,8.00
2024-02-26T15:56:03.263Z,8.90
2024-02-26T15:58:30.351Z,7.90
2024-02-26T16:01:03.846Z,10.50
2024-02-26T16:03:41.166Z,5.30
2024-02-26T16:06:11.486Z,9.20
2024-02-26T16:08:38.574Z,8.40
2024-02-26T16:11:05.856Z,6.30
2024-02-26T16:13:33.572Z,10.70
2024-02-26T16:16:06.917Z,8.10
2024-02-26T16:18:36.331Z,9.90
2024-02-26T16:21:03.793Z,10.30
2024-02-26T16:23:31.333Z,9.50
2024-02-26T16:25:58.942Z,11.40
2024-02-26T16:28:27.319Z,12.00
2024-02-26T16:30:55.253Z,11.90
2024-02-26T16:33:22.889Z,8.60
2024-02-26T16:35:50.161Z,9.40
2024-02-26T16:38:17.309Z,10.80
2024-02-26T16:40:45.323Z,13.10
2024-02-26T16:43:12.532Z,10.90
2024-02-26T16:45:39.548Z,10.50
2024-02-26T16:48:08.007Z,9.70
2024-02-26T16:50:35.423Z,12.00
2024-02-26T16:53:02.355Z,13.70
2024-02-26T16:55:29.500Z,10.80
2024-02-26T16:57:57.801Z,9.70
2024-02-26T17:00:25.753Z,10.60
2024-02-26T17:02:54.012Z,13.10
2024-02-26T17:05:22.207Z,14.80
2024-02-26T17:07:49.127Z,15.60
2024-02-26T17:10:18.008Z,15.20
2024-02-26T17:12:46.492Z,18.80
2024-02-26T17:15:14.548Z,21.30
2024-02-26T17:17:42.086Z,15.70
2024-02-26T17:20:11.387Z,17.10
2024-02-26T17:22:38.984Z,18.80
2024-02-26T17:25:07.214Z,16.40
2024-02-26T17:27:34.271Z,22.70
2024-02-26T17:30:01.512Z,19.00
2024-02-26T17:32:28.782Z,18.70
2024-02-26T17:34:56.099Z,19.90
2024-02-26T17:37:23.052Z,24.30
2024-02-26T17:39:50.592Z,22.50
2024-02-26T17:42:17.701Z,19.60
2024-02-26T17:44:45.157Z,25.50
2024-02-26T17:47:12.259Z,21.70
2024-02-26T17:49:41.039Z,25.90
2024-02-26T17:52:08.946Z,23.80
2024-02-26T17:54:36.416Z,24.80
2024-02-26T17:57:03.547Z,23.10
2024-02-26T17:59:32.916Z,23.80
2024-02-26T18:02:00.143Z,25.40
2024-02-26T18:04:27.869Z,26.60
2024-02-26T18:06:55.011Z,25.90
2024-02-26T18:09:22.203Z,25.20
2024-02-26T18:11:49.519Z,28.00
2024-02-26T18:14:17.048Z,31.80
2024-02-26T18:16:44.000Z,29.00
2024-02-26T18:19:11.172Z,32.40
2024-02-26T18:21:38.322Z,32.00
2024-02-26T18:24:06.559Z,29.10
2024-02-26T18:26:35.240Z,33.20
2024-02-26T18:29:02.208Z,35.30
2024-02-26T18:31:30.141Z,33.70
2024-02-26T18:33:57.481Z,36.30
2024-02-26T18:36:26.139Z,33.40
2024-02-26T18:38:53.655Z,33.00
2024-02-26T18:41:25.151Z,35.20
2024-02-26T18:43:53.494Z,34.40
2024-02-26T18:46:20.622Z,34.50
2024-02-26T18:48:49.687Z,35.50
2024-02-26T18:51:17.069Z,34.20
2024-02-26T18:53:44.214Z,34.80
2024-02-26T18:56:12.090Z,35.80
2024-02-26T18:58:39.310Z,36.20
2024-02-26T19:01:06.848Z,35.50
2024-02-26T19:03:34.517Z,35.00
2024-02-26T19:06:04.173Z,38.40
2024-02-26T19:08:31.258Z,39.10
2024-02-26T19:11:00.368Z,39.60
2024-02-26T19:13:27.476Z,36.10
2024-02-26T19:15:54.730Z,42.40
2024-02-26T19:18:22.129Z,39.70
2024-02-26T19:20:49.781Z,35.40
2024-02-26T19:23:17.473Z,38.50
2024-02-26T19:25:44.502Z,39.10
2024-02-26T19:28:11.734Z,38.70
2024-02-26T19:30:39.406Z,36.40
2024-02-26T19:33:07.376Z,38.50
2024-02-26T19:35:35.285Z,39.20
2024-02-26T19:38:02.642Z,39.90
2024-02-26T19:40:29.769Z,40.90
2024-02-26T19:42:56.926Z,37.80
2024-02-26T19:45:24.437Z,41.30
2024-02-26T19:47:51.798Z,37.20
2024-02-26T19:50:19.605Z,37.80
2024-02-26T19:52:46.838Z,43.20
2024-02-26T19:55:17.437Z,41.60
2024-02-26T19:57:44.749Z,40.40
2024-02-26T20:00:13.980Z,37.40
2024-02-26T20:02:41.517Z,41.50
2024-02-26T20:05:09.976Z,44.70
2024-02-26T20:07:37.045Z,40.90
2024-02-26T20:10:04.654Z,39.00
2024-02-26T20:12:31.750Z,37.00
2024-02-26T20:14:58.866Z,40.10
2024-02-26T20:17:26.188Z,39.40
2024-02-26T20:19:58.595Z,38.90
2024-02-26T20:22:25.994Z,38.60
2024-02-26T20:24:53.288Z,38.80
2024-02-26T20:27:20.383Z,40.50
2024-02-26T20:29:47.445Z,37.70
2024-02-26T20:32:14.415Z,38.40
2024-02-26T20:34:41.814Z,36.00
2024-02-26T20:37:08.943Z,40.40
2024-02-26T20:39:36.529Z,39.10
2024-02-26T20:42:04.077Z,40.20
2024-02-26T20:44:31.035Z,40.20
2024-02-26T20:47:00.203Z,39.10
2024-02-26T20:49:27.257Z,36.40
2024-02-26T20:51:54.205Z,41.40
2024-02-26T20:54:21.315Z,41.50
2024-02-26T20:56:48.543Z,41.00
2024-02-26T20:59:17.173Z,39.10
2024-02-26T21:01:44.304Z,38.50
2024-02-26T21:04:11.650Z,41.10
2024-02-26T21:06:39.133Z,41.10
2024-02-26T21:09:07.305Z,37.20
2024-02-26T21:11:35.860Z,38.80
2024-02-26T21:14:02.796Z,39.60
2024-02-26T21:16:29.834Z,36.50
2024-02-26T21:19:00.113Z,36.80
2024-02-26T21:21:29.712Z,41.90
2024-02-26T21:23:57.220Z,43.00
2024-02-26T21:26:25.043Z,42.90
2024-02-26T21:28:52.229Z,43.40
2024-02-26T21:31:19.163Z,42.00
2024-02-26T21:33:46.439Z,42.20
2024-02-26T21:36:13.852Z,42.70
2024-02-26T21:38:46.501Z,43.90
2024-02-26T21:41:18.542Z,43.00
2024-02-26T21:43:45.519Z,50.10
2024-02-26T21:46:13.058Z,44.20
2024-02-26T21:48:40.758Z,44.10
2024-02-26T21:51:08.740Z,46.60
2024-02-26T21:53:35.968Z,48.10
2024-02-26T21:56:05.090Z,53.40
2024-02-26T21:58:32.181Z,49.30
2024-02-26T22:00:59.183Z,47.50
2024-02-26T22:03:26.360Z,50.20
2024-02-26T22:05:55.406Z,45.60
2024-02-26T22:08:22.385Z,48.30
2024-02-26T22:10:51.515Z,50.30
2024-02-26T22:13:18.512Z,49.60
2024-02-26T22:15:46.431Z,49.50
2024-02-26T22:18:14.106Z,49.00
2024-02-26T22:20:42.291Z,46.20
2024-02-26T22:23:09.315Z,50.90
2024-02-26T22:25:36.274Z,42.70
2024-02-26T22:28:03.866Z,49.20
2024-02-26T22:30:30.843Z,49.20
2024-02-26T22:32:58.002Z,43.90
2024-02-26T22:35:25.648Z,47.70
2024-02-26T22:37:53.122Z,45.60
2024-02-26T22:40:20.466Z,46.20
2024-02-26T22:42:47.851Z,50.40
2024-02-26T22:45:16.128Z,44.70
2024-02-26T22:47:43.271Z,45.30
2024-02-26T22:50:11.850Z,47.80
2024-02-26T22:52:39.288Z,48.20
2024-02-26T22:55:07.510Z,44.20
2024-02-26T22:57:35.175Z,49.20
2024-02-26T23:00:21.029Z,43.90
2024-02-26T23:02:48.035Z,45.30
2024-02-26T23:05:17.116Z,46.50
2024-02-26T23:07:45.592Z,49.40
2024-02-26T23:10:14.814Z,50.20
2024-02-26T23:12:41.798Z,46.80
2024-02-26T23:15:11.970Z,47.00
2024-02-26T23:17:39.173Z,44.60
2024-02-26T23:20:09.740Z,43.30
2024-02-26T23:22:37.412Z,46.20
2024-02-26T23:25:05.438Z,45.20
2024-02-26T23:27:33.157Z,48.60
2024-02-26T23:30:00.144Z,47.20
2024-02-26T23:32:27.298Z,48.40
2024-02-26T23:34:54.864Z,43.80
2024-02-26T23:37:22.199Z,46.10
2024-02-26T23:39:49.404Z,48.50
2024-02-26T23:42:16.614Z,48.30
2024-02-26T23:44:45.003Z,48.30
2024-02-26T23:47:12.352Z,44.30
2024-02-26T23:49:39.268Z,46.30
2024-02-26T23:52:06.847Z,46.30
2024-02-26T23:54:34.200Z,45.80
2024-02-26T23:57:01.206Z,47.00
2024-02-26T23:59:28.093Z,45.10
